San Francisco, CA (94101)

1:51 AM PDT on August 28, 2016 (GMT -0700)
North Mission (Valencia and Market) | | Change Station

Elev 62 ft 37.77 °N, 122.42 °W | Updated 1 minute ago

Scattered Clouds
Scattered Clouds
59.1 °F
Feels Like 59.1 °F
N
3.0
Wind Variable Wind from WNW
Gusts 5.0 mph

Today
High -- | Low -- °F
--% Chance of Precip.
Yesterday
High -- | Low -- °F
Precip. -- in
Pressure 30.05 in
Visibility 10.0 miles
Clouds Few 1200 ft
Scattered Clouds 2300 ft
Dew Point 54 °F
Humidity 82%
Rainfall 0.00 in
Snow Depth Not available.
6:36 AM 7:43 PM
Waning Crescent, 17% visible
SPECI KSFO 280816Z 22006KT 10SM FEW012 SCT023 16/11 A3005 RMK AO2 T01610111
Pressure 30.05 in
Visibility 10.0 miles
Clouds Few 1200 ft
Scattered Clouds 2300 ft
Dew Point 54 °F
Humidity 82%
Rainfall 0.00 in
Snow Depth Not available.
6:36 AM 7:43 PM
Waning Crescent, 17% visible
SPECI KSFO 280816Z 22006KT 10SM FEW012 SCT023 16/11 A3005 RMK AO2 T01610111

10-Day Weather Forecast

Almanac

Astronomy

Aug. 28, 2016 Rise Set
Actual Time
Civil Twilight
Nautical Twilight
Astronomical Twilight
Moon
Length of Visible Light
Length of Day
Tomorrow will be .
, % of the Moon is Illuminated

Today's Extremes

State Highs State Lows

Community

WunderPhotos

Upload Photos

1,935,540 photos uploaded!

WunderBlog® & News

Nearby

Air Quality

  Air Quality AQ Index Pollutant
Not available.

Snow Depth

Station Depth Elevation

Earthquake Activity

City Distance Mag. Time & Date
Minimum magnitude displayed is 2.5.

Coastal Water Temperatures

Place Temperature

Stations

Nearby Weather Stations

Station Location Temp. Windchill Dew Point Humidity Wind Precip. Elev Updated Type
                   

Watches & Warnings

There are currently no watches in effect.